Wilmington, OH (45177)

4:10 PM EDT on July 28, 2016 (GMT -0400)
2.2 N Wilmington | | Change Station

Elev 1053 ft 39.47 °N, 83.84 °W | Updated 7 minutes ago

Scattered Clouds
Scattered Clouds
78.9 °F
Feels Like 82 °F
N
4.0
Wind Variable Wind from WSW
Gusts 5.0 mph

Today
High -- | Low -- °F
--% Chance of Precip.
Yesterday
High -- | Low -- °F
Precip. -- in
Pressure 29.89 in
Visibility 10.0 miles
Clouds Scattered Clouds 2100 ft
Scattered Clouds 6500 ft
Heat Index 82 °F
Dew Point 73 °F
Humidity 81%
Rainfall 0.23 in
Snow Depth Not available.
6:31 AM 8:51 PM
Waning Crescent, 29% visible
SPECI KILN 282004Z AUTO 21003KT 10SM SCT021 SCT065 26/22 A2989 RMK AO2 T02610217
Pressure 29.89 in
Visibility 10.0 miles
Clouds Scattered Clouds 2100 ft
Scattered Clouds 6500 ft
Heat Index 82 °F
Dew Point 73 °F
Humidity 81%
Rainfall 0.23 in
Snow Depth Not available.
6:31 AM 8:51 PM
Waning Crescent, 29% visible
SPECI KILN 282004Z AUTO 21003KT 10SM SCT021 SCT065 26/22 A2989 RMK AO2 T02610217

10-Day Weather Forecast

Almanac

Astronomy

Jul. 28, 2016 Rise Set
Actual Time
Civil Twilight
Nautical Twilight
Astronomical Twilight
Moon
Length of Visible Light
Length of Day
Tomorrow will be .
, % of the Moon is Illuminated

Today's Extremes

State Highs State Lows

Community

WunderPhotos

Upload Photos

1,928,202 photos uploaded!

WunderBlog® & News

Nearby

Air Quality

  Air Quality AQ Index Pollutant
Not available.

Snow Depth

Station Depth Elevation

Earthquake Activity

City Distance Mag. Time & Date
Minimum magnitude displayed is 2.5.

Coastal Water Temperatures

Place Temperature

Stations

Nearby Weather Stations

Station Location Temp. Windchill Dew Point Humidity Wind Precip. Elev Updated Type
                   

Watches & Warnings

There are currently no watches in effect.